createdAt,value
2022-11-06T00:01:45.920Z,99080.34
2022-11-06T00:04:13.184Z,99073.72
2022-11-06T00:06:49.110Z,99071.09
2022-11-06T00:09:19.506Z,99076.91
2022-11-06T00:11:48.199Z,99064.00
2022-11-06T00:14:16.123Z,99064.50
2022-11-06T00:16:44.456Z,99060.31
2022-11-06T00:19:11.895Z,99065.94
2022-11-06T00:21:39.337Z,99072.56
2022-11-06T00:24:08.067Z,99062.19
2022-11-06T00:26:35.574Z,99077.69
2022-11-06T00:29:03.901Z,99068.94
2022-11-06T00:31:33.965Z,99063.31
2022-11-06T00:34:02.852Z,99070.94
2022-11-06T00:36:31.076Z,99073.06
2022-11-06T00:38:59.285Z,99075.50
2022-11-06T00:41:27.312Z,99069.03
2022-11-06T00:43:57.152Z,99073.53
2022-11-06T00:46:24.358Z,99069.63
2022-11-06T00:48:53.265Z,99057.47
2022-11-06T00:51:25.679Z,99065.31
2022-11-06T00:53:57.678Z,99064.94
2022-11-06T00:56:25.708Z,99068.69
2022-11-06T00:58:53.269Z,99077.63
2022-11-06T01:01:36.101Z,99072.94
2022-11-06T01:04:06.841Z,99059.34
2022-11-06T01:06:37.426Z,99062.84
2022-11-06T01:09:05.789Z,99061.34
2022-11-06T01:11:59.199Z,99065.19
2022-11-06T01:14:23.738Z,99064.88
2022-11-06T01:16:51.384Z,99056.91
2022-11-06T01:19:20.327Z,99060.47
2022-11-06T01:21:49.148Z,99056.09
2022-11-06T01:24:19.078Z,99064.75
2022-11-06T01:27:12.113Z,99058.78
2022-11-06T01:29:33.654Z,99052.09
2022-11-06T01:32:03.325Z,99055.84
2022-11-06T01:34:30.469Z,99052.91
2022-11-06T01:36:57.243Z,99058.56
2022-11-06T01:39:24.121Z,99062.44
2022-11-06T01:41:53.497Z,99065.88
2022-11-06T01:44:34.999Z,99078.97
2022-11-06T01:47:26.230Z,99069.56
2022-11-06T01:50:01.492Z,99078.78
2022-11-06T01:52:37.795Z,99076.44
2022-11-06T01:55:33.485Z,99074.00
2022-11-06T01:58:03.518Z,99077.84
2022-11-06T02:00:31.263Z,99069.94
2022-11-06T02:03:02.795Z,99077.44
2022-11-06T02:05:32.157Z,99086.78
2022-11-06T02:08:01.105Z,99092.34
2022-11-06T02:10:46.270Z,99085.16
2022-11-06T02:13:57.440Z,99098.13
2022-11-06T02:17:18.516Z,99087.91
2022-11-06T02:20:19.592Z,99103.69
2022-11-06T02:23:25.991Z,99100.25
2022-11-06T02:26:13.239Z,99088.03
2022-11-06T02:28:47.912Z,99070.91
2022-11-06T02:31:21.126Z,99089.16
2022-11-06T02:33:54.770Z,99088.47
2022-11-06T02:36:29.000Z,99081.97
2022-11-06T02:39:01.961Z,99093.44
2022-11-06T02:41:34.359Z,99090.19
2022-11-06T02:44:06.310Z,99099.72
2022-11-06T02:46:41.638Z,99098.72
2022-11-06T02:49:20.293Z,99097.78
2022-11-06T02:51:50.893Z,99096.78
2022-11-06T02:54:21.608Z,99099.22
2022-11-06T02:56:53.186Z,99012.66
2022-11-06T02:59:51.192Z,99103.78
2022-11-06T03:02:44.376Z,99099.09
2022-11-06T03:05:23.761Z,99096.06
2022-11-06T03:08:14.013Z,99109.59
2022-11-06T03:11:06.500Z,99108.78
2022-11-06T03:13:58.545Z,99111.03
2022-11-06T03:16:56.465Z,99106.31
2022-11-06T03:19:32.517Z,99116.78
2022-11-06T03:22:26.054Z,99117.38
2022-11-06T03:25:04.730Z,99120.13
2022-11-06T03:27:47.275Z,99116.38
2022-11-06T03:30:16.713Z,99123.91
2022-11-06T03:33:12.043Z,99129.28
2022-11-06T03:35:48.846Z,99131.13
2022-11-06T03:38:24.257Z,99108.78
2022-11-06T03:40:55.385Z,99109.50
2022-11-06T03:43:27.173Z,99105.13
2022-11-06T03:45:56.866Z,99118.63
2022-11-06T03:48:32.087Z,99098.53
2022-11-06T03:51:02.409Z,99112.53
2022-11-06T03:53:46.986Z,99117.69
2022-11-06T03:56:24.469Z,99112.63
2022-11-06T03:58:52.132Z,99121.06
2022-11-06T04:01:24.439Z,99115.56
2022-11-06T04:04:07.305Z,99101.66
2022-11-06T04:06:46.438Z,99105.13
2022-11-06T04:09:34.417Z,99118.81
2022-11-06T04:12:22.930Z,99112.22
2022-11-06T04:14:55.296Z,99123.50
2022-11-06T04:17:26.431Z,99131.84
2022-11-06T04:20:00.360Z,99121.88
2022-11-06T04:22:54.415Z,99127.06
2022-11-06T04:26:02.619Z,99124.13
2022-11-06T04:29:06.880Z,99129.09
2022-11-06T04:31:55.728Z,99129.22
2022-11-06T04:34:33.538Z,99122.59
2022-11-06T04:37:09.834Z,99122.09
2022-11-06T04:40:05.845Z,99133.78
2022-11-06T04:42:41.371Z,99131.84
2022-11-06T04:45:15.330Z,99131.03
2022-11-06T04:47:44.297Z,99136.22
2022-11-06T04:50:13.718Z,99135.59
2022-11-06T04:52:41.784Z,99127.38
2022-11-06T04:55:08.797Z,99141.41
2022-11-06T04:57:35.837Z,99131.25
2022-11-06T05:00:02.932Z,99146.16
2022-11-06T05:02:30.139Z,99137.72
2022-11-06T05:04:57.282Z,99144.72
2022-11-06T05:07:24.473Z,99130.00
2022-11-06T05:09:51.433Z,99137.63
2022-11-06T05:12:18.358Z,99120.88
2022-11-06T05:14:45.289Z,99153.47
2022-11-06T05:17:13.353Z,99158.13
2022-11-06T05:19:40.803Z,99158.44
2022-11-06T05:22:26.490Z,99134.09
2022-11-06T05:24:53.635Z,99164.53
2022-11-06T05:27:20.446Z,99166.28
2022-11-06T05:29:47.664Z,99180.69
2022-11-06T05:32:14.666Z,99181.06
2022-11-06T05:34:42.653Z,99175.72
2022-11-06T05:37:09.465Z,99182.31
2022-11-06T05:39:41.403Z,99180.06
2022-11-06T05:42:09.181Z,99189.78
2022-11-06T05:44:37.814Z,99183.06
2022-11-06T05:47:04.849Z,99198.28
2022-11-06T05:49:32.686Z,99190.25
2022-11-06T05:51:59.685Z,99203.53
2022-11-06T05:54:26.794Z,99202.50
2022-11-06T05:56:53.956Z,99204.06
2022-11-06T05:59:21.095Z,99210.63
2022-11-06T06:01:48.166Z,99223.22
2022-11-06T06:04:15.372Z,99216.97
2022-11-06T06:06:42.501Z,99208.13
2022-11-06T06:09:09.621Z,99220.47
2022-11-06T06:11:36.695Z,99225.09
2022-11-06T06:14:03.913Z,99225.47
2022-11-06T06:16:31.229Z,99224.94
2022-11-06T06:18:58.302Z,99236.66
2022-11-06T06:21:25.177Z,99225.75
2022-11-06T06:23:52.221Z,99228.84
2022-11-06T06:26:20.821Z,99239.44
2022-11-06T06:28:49.696Z,99246.59
2022-11-06T06:31:16.895Z,99243.22
2022-11-06T06:33:43.730Z,99235.59
2022-11-06T06:36:11.242Z,99246.19
2022-11-06T06:38:38.366Z,99246.50
2022-11-06T06:41:07.373Z,99244.91
2022-11-06T06:43:35.392Z,99256.09
2022-11-06T06:46:04.335Z,99255.91
2022-11-06T06:48:31.533Z,99252.63
2022-11-06T06:51:02.597Z,99248.72
2022-11-06T06:53:29.949Z,99250.16
2022-11-06T06:56:00.266Z,99250.06
2022-11-06T06:58:31.356Z,99253.59
2022-11-06T07:01:04.246Z,99250.00
2022-11-06T07:03:32.322Z,99247.47
2022-11-06T07:05:59.257Z,99247.28
2022-11-06T07:08:27.263Z,99263.94
2022-11-06T07:11:01.805Z,99255.47
2022-11-06T07:13:35.429Z,99268.06
2022-11-06T07:16:08.122Z,99255.50
2022-11-06T07:18:36.037Z,99261.53
2022-11-06T07:21:07.966Z,99260.03
2022-11-06T07:23:36.333Z,99258.84
2022-11-06T07:26:04.456Z,99254.38
2022-11-06T07:28:32.630Z,99251.22
2022-11-06T07:31:01.051Z,99257.75
2022-11-06T07:33:28.407Z,99257.94
2022-11-06T07:35:55.802Z,99260.47
2022-11-06T07:38:22.955Z,99268.91
2022-11-06T07:40:50.043Z,99263.03
2022-11-06T07:43:17.077Z,99270.16
2022-11-06T07:45:44.956Z,99263.28
2022-11-06T07:48:12.245Z,99249.91
2022-11-06T07:50:39.492Z,99264.31
2022-11-06T07:53:06.792Z,99260.66
2022-11-06T07:55:37.776Z,99259.38
2022-11-06T07:58:08.017Z,99276.03
2022-11-06T08:00:35.166Z,99275.91
2022-11-06T08:03:02.121Z,99280.31
2022-11-06T08:05:29.254Z,99278.69
2022-11-06T08:07:57.277Z,99278.91
2022-11-06T08:10:24.383Z,99282.16
2022-11-06T08:12:51.426Z,99283.66
2022-11-06T08:15:18.658Z,99278.56
2022-11-06T08:17:45.668Z,99288.38
2022-11-06T08:20:12.763Z,99297.63
2022-11-06T08:22:40.030Z,99287.69
2022-11-06T08:25:07.885Z,99288.59
2022-11-06T08:27:34.699Z,99295.03
2022-11-06T08:30:02.181Z,99284.44
2022-11-06T08:32:29.385Z,99290.56
2022-11-06T08:34:56.758Z,99299.66
2022-11-06T08:37:23.751Z,99305.53
2022-11-06T08:39:50.807Z,99308.31
2022-11-06T08:42:17.964Z,99304.16
2022-11-06T08:44:44.847Z,99306.00
2022-11-06T08:47:11.689Z,99304.06
2022-11-06T08:49:38.880Z,99314.44
2022-11-06T08:52:05.948Z,99308.00
2022-11-06T08:54:32.989Z,99312.16
2022-11-06T08:57:00.752Z,99311.03
2022-11-06T08:59:28.021Z,99316.22
2022-11-06T09:01:56.491Z,99319.81
2022-11-06T09:04:23.567Z,99312.97
2022-11-06T09:06:50.545Z,99321.88
2022-11-06T09:09:17.572Z,99308.22
2022-11-06T09:11:44.600Z,99323.81
2022-11-06T09:14:12.526Z,99324.16
2022-11-06T09:16:39.318Z,99319.31
2022-11-06T09:19:06.318Z,99327.91
2022-11-06T09:21:33.393Z,99329.25
2022-11-06T09:24:00.554Z,99325.78
2022-11-06T09:26:27.505Z,99321.06
2022-11-06T09:28:54.469Z,99324.28
2022-11-06T09:31:21.715Z,99328.56
2022-11-06T09:33:48.661Z,99321.03
2022-11-06T09:36:15.929Z,99337.13
2022-11-06T09:38:42.872Z,99329.00
2022-11-06T09:41:22.448Z,99326.00
2022-11-06T09:44:06.176Z,99333.16
2022-11-06T09:46:41.255Z,99287.31
2022-11-06T09:49:31.256Z,99331.97
2022-11-06T09:51:58.363Z,99332.41
2022-11-06T09:54:49.676Z,99319.66
2022-11-06T09:57:40.285Z,99306.50
2022-11-06T10:00:12.185Z,99308.94
2022-11-06T10:02:45.384Z,99312.25
2022-11-06T10:05:28.181Z,99313.53
2022-11-06T10:08:04.314Z,99304.75
2022-11-06T10:10:43.588Z,99309.94
2022-11-06T10:13:28.531Z,99296.38
2022-11-06T10:16:07.866Z,99306.41
2022-11-06T10:18:53.631Z,99307.94
2022-11-06T10:21:20.387Z,99304.63
2022-11-06T10:23:58.140Z,99296.78
2022-11-06T10:26:38.264Z,99301.56
2022-11-06T10:29:28.704Z,99300.84
2022-11-06T10:31:55.709Z,99296.28
2022-11-06T10:34:42.895Z,99287.19
2022-11-06T10:37:22.797Z,99280.28
2022-11-06T10:39:50.558Z,99276.16
2022-11-06T10:42:20.810Z,99295.00
2022-11-06T10:45:04.057Z,99285.34
2022-11-06T10:47:53.235Z,99273.28
2022-11-06T10:50:20.700Z,99278.94
2022-11-06T10:53:05.756Z,99261.06
2022-11-06T10:55:36.552Z,99266.84
2022-11-06T10:58:15.870Z,99267.16
2022-11-06T11:00:43.692Z,99260.97
2022-11-06T11:03:24.283Z,99254.38
2022-11-06T11:05:51.318Z,99257.81
2022-11-06T11:08:51.952Z,99266.56
2022-11-06T11:11:23.286Z,99252.63
2022-11-06T11:13:51.882Z,99254.31
2022-11-06T11:16:26.169Z,99263.69
2022-11-06T11:18:54.006Z,99258.94
2022-11-06T11:21:21.030Z,99255.41
2022-11-06T11:24:11.972Z,99260.69
2022-11-06T11:26:48.665Z,99257.75
2022-11-06T11:29:23.946Z,99246.63
2022-11-06T11:31:57.678Z,99250.34
2022-11-06T11:34:28.502Z,99242.81
2022-11-06T11:37:08.529Z,99249.56
2022-11-06T11:39:44.377Z,99250.72
2022-11-06T11:42:28.822Z,99246.41
2022-11-06T11:45:11.059Z,99252.78
2022-11-06T11:47:40.546Z,99250.13
2022-11-06T11:50:17.137Z,99257.97
2022-11-06T11:52:51.110Z,99254.81
2022-11-06T11:55:22.856Z,99243.22
2022-11-06T11:57:52.845Z,99248.72
2022-11-06T12:00:22.965Z,99249.38
2022-11-06T12:02:55.293Z,99253.34
2022-11-06T12:05:41.300Z,99252.53
2022-11-06T12:08:22.192Z,99246.03
2022-11-06T12:10:50.327Z,99252.47
2022-11-06T12:13:25.198Z,99255.56
2022-11-06T12:16:04.744Z,99260.38
2022-11-06T12:18:42.752Z,99249.09
2022-11-06T12:21:33.146Z,99260.53
2022-11-06T12:24:28.148Z,99259.44
2022-11-06T12:27:13.592Z,99255.47
2022-11-06T12:29:53.615Z,99252.13
2022-11-06T12:32:40.051Z,99248.91
2022-11-06T12:35:22.401Z,99264.56
2022-11-06T12:38:04.917Z,99258.78
2022-11-06T12:40:39.867Z,99251.97
2022-11-06T12:43:37.253Z,99256.28
2022-11-06T12:46:19.692Z,99256.78
2022-11-06T12:48:56.050Z,99259.28
2022-11-06T12:51:44.741Z,99252.66
2022-11-06T12:54:24.735Z,99254.34
2022-11-06T12:57:01.937Z,99254.06
2022-11-06T12:59:54.673Z,99257.88
2022-11-06T13:02:50.197Z,99259.78
2022-11-06T13:05:29.004Z,99261.47
2022-11-06T13:08:15.389Z,99264.25
2022-11-06T13:11:01.759Z,99265.00
2022-11-06T13:13:44.125Z,99268.50
2022-11-06T13:16:14.072Z,99263.00
2022-11-06T13:18:53.017Z,99269.75
2022-11-06T13:21:39.812Z,99268.50
2022-11-06T13:24:15.175Z,99266.75
2022-11-06T13:27:02.239Z,99266.41
2022-11-06T13:29:30.908Z,99261.69
2022-11-06T13:32:03.332Z,99276.28
2022-11-06T13:34:36.490Z,99270.16
2022-11-06T13:37:12.700Z,99276.97
2022-11-06T13:39:46.671Z,99258.63
2022-11-06T13:42:42.447Z,99270.72
2022-11-06T13:45:14.909Z,99275.13
2022-11-06T13:47:57.413Z,99275.50
2022-11-06T13:50:40.314Z,99270.59
2022-11-06T13:53:27.650Z,99267.22
2022-11-06T13:56:20.926Z,99273.06
2022-11-06T13:58:51.375Z,99283.41
2022-11-06T14:01:44.031Z,99274.75
2022-11-06T14:04:35.889Z,99283.09
2022-11-06T14:07:05.889Z,99270.38
2022-11-06T14:09:36.230Z,99275.50
2022-11-06T14:12:13.960Z,99286.38
2022-11-06T14:14:42.651Z,99281.78
2022-11-06T14:17:17.696Z,99277.97
2022-11-06T14:19:50.783Z,99283.59
2022-11-06T14:22:36.744Z,99277.47
2022-11-06T14:25:30.335Z,99283.41
2022-11-06T14:27:58.459Z,99277.69
2022-11-06T14:30:57.807Z,99286.84
2022-11-06T14:33:41.237Z,99293.28
2022-11-06T14:36:35.620Z,99279.66
2022-11-06T14:39:04.421Z,99286.22
2022-11-06T14:41:34.202Z,99291.78
2022-11-06T14:44:31.073Z,99281.81
2022-11-06T14:47:02.565Z,99274.31
2022-11-06T14:49:42.487Z,99271.53
2022-11-06T14:52:16.052Z,99280.50
2022-11-06T14:55:24.403Z,99286.44
2022-11-06T14:57:53.689Z,99285.19
2022-11-06T15:00:45.094Z,99285.31
2022-11-06T15:03:52.613Z,99281.97
2022-11-06T15:06:19.858Z,99283.16
2022-11-06T15:08:46.886Z,99285.03
2022-11-06T15:11:47.883Z,99297.56
2022-11-06T15:14:15.287Z,99300.88
2022-11-06T15:16:45.364Z,99281.72
2022-11-06T15:19:19.571Z,99277.59
2022-11-06T15:21:56.872Z,99278.50
2022-11-06T15:28:05.125Z,99308.59
2022-11-06T15:30:42.550Z,99312.34
2022-11-06T15:33:16.758Z,99316.28
2022-11-06T15:35:46.665Z,99318.41
2022-11-06T15:38:37.959Z,99315.19
2022-11-06T15:41:07.675Z,99316.16
2022-11-06T15:43:39.155Z,99315.72
2022-11-06T15:46:12.027Z,99322.44
2022-11-06T15:48:51.073Z,99325.09
2022-11-06T15:51:28.041Z,99316.22
2022-11-06T15:53:55.772Z,99341.75
2022-11-06T15:56:31.342Z,99332.75
2022-11-06T15:59:24.828Z,99349.88
2022-11-06T16:01:51.743Z,99335.09
2022-11-06T16:04:24.120Z,99338.91
2022-11-06T16:06:54.000Z,99352.31
2022-11-06T16:09:29.793Z,99359.28
2022-11-06T16:11:58.386Z,99361.72
2022-11-06T16:14:25.272Z,99356.06
2022-11-06T16:16:56.429Z,99366.00
2022-11-06T16:19:23.262Z,99374.53
2022-11-06T16:22:17.958Z,99368.09
2022-11-06T16:25:00.380Z,99385.44
2022-11-06T16:27:27.862Z,99383.69
2022-11-06T16:30:01.649Z,99375.25
2022-11-06T16:32:31.586Z,99377.81
2022-11-06T16:35:00.173Z,99382.53
2022-11-06T16:37:29.762Z,99389.25
2022-11-06T16:40:00.209Z,99386.81
2022-11-06T16:42:33.419Z,99343.72
2022-11-06T16:45:02.021Z,99392.03
2022-11-06T16:47:28.935Z,99390.06
2022-11-06T16:49:57.771Z,99390.88
2022-11-06T16:52:34.098Z,99388.66
2022-11-06T16:55:17.151Z,99389.81
2022-11-06T16:57:46.857Z,99393.28
2022-11-06T17:00:19.784Z,99394.81
2022-11-06T17:02:50.927Z,99392.59
2022-11-06T17:05:19.428Z,99399.88
2022-11-06T17:07:46.330Z,99393.28
2022-11-06T17:10:35.131Z,99407.16
2022-11-06T17:13:18.765Z,99404.59
2022-11-06T17:15:49.416Z,99408.75
2022-11-06T17:18:22.494Z,99420.31
2022-11-06T17:20:58.057Z,99415.47
2022-11-06T17:23:26.588Z,99424.25
2022-11-06T17:25:57.217Z,99427.38
2022-11-06T17:28:24.297Z,99411.78
2022-11-06T17:30:51.836Z,99426.56
2022-11-06T17:33:18.906Z,99436.75
2022-11-06T17:35:48.525Z,99433.88
2022-11-06T17:38:17.169Z,99438.50
2022-11-06T17:40:45.373Z,99440.22
2022-11-06T17:43:12.893Z,99438.72
2022-11-06T17:45:42.239Z,99445.88
2022-11-06T17:48:09.191Z,99440.34
2022-11-06T17:50:56.213Z,99435.59
2022-11-06T17:53:23.207Z,99445.53
2022-11-06T17:55:50.128Z,99438.50
2022-11-06T17:58:17.085Z,99445.06
2022-11-06T18:00:44.440Z,99447.16
2022-11-06T18:03:22.533Z,99446.69
2022-11-06T18:05:49.540Z,99440.69
2022-11-06T18:08:17.151Z,99443.56
2022-11-06T18:10:44.428Z,99450.97
2022-11-06T18:13:11.352Z,99445.06
2022-11-06T18:15:38.414Z,99453.88
2022-11-06T18:18:05.432Z,99445.31
2022-11-06T18:20:32.250Z,99445.06
2022-11-06T18:22:59.314Z,99459.28
2022-11-06T18:25:26.142Z,99456.88
2022-11-06T18:27:53.117Z,99464.25
2022-11-06T18:30:19.943Z,99457.53
2022-11-06T18:32:46.898Z,99469.69
2022-11-06T18:35:13.668Z,99468.88
2022-11-06T18:37:40.749Z,99470.03
2022-11-06T18:40:08.411Z,99470.16
2022-11-06T18:42:35.340Z,99453.28
2022-11-06T18:45:02.209Z,99489.91
2022-11-06T18:47:29.089Z,99488.06
2022-11-06T18:49:56.281Z,99483.56
2022-11-06T18:52:44.503Z,99487.59
2022-11-06T18:55:10.297Z,99486.22
2022-11-06T18:57:37.242Z,99493.03
2022-11-06T19:00:05.201Z,99498.38
2022-11-06T19:02:32.447Z,99505.06
2022-11-06T19:04:59.882Z,99506.34
2022-11-06T19:07:27.273Z,99515.81
2022-11-06T19:09:54.347Z,99505.41
2022-11-06T19:12:21.272Z,99516.84
2022-11-06T19:14:48.285Z,99516.03
2022-11-06T19:17:15.313Z,99510.25
2022-11-06T19:19:42.388Z,99508.88
2022-11-06T19:22:10.738Z,99515.34
2022-11-06T19:24:37.681Z,99512.00
2022-11-06T19:27:05.093Z,99515.69
2022-11-06T19:29:32.450Z,99507.94
2022-11-06T19:32:02.358Z,99516.38
2022-11-06T19:34:30.754Z,99514.75
2022-11-06T19:36:59.119Z,99525.97
2022-11-06T19:39:26.001Z,99519.97
2022-11-06T19:41:55.538Z,99533.50
2022-11-06T19:44:22.407Z,99521.94
2022-11-06T19:46:49.427Z,99530.94
2022-11-06T19:49:22.543Z,99533.50
2022-11-06T19:51:49.560Z,99531.06
2022-11-06T19:54:17.151Z,99537.53
2022-11-06T19:57:27.882Z,99538.22
2022-11-06T19:59:31.012Z,99544.47
2022-11-06T20:01:57.897Z,99544.47
2022-11-06T20:04:25.145Z,99548.41
2022-11-06T20:06:52.454Z,99543.53
2022-11-06T20:09:19.629Z,99547.47
2022-11-06T20:11:46.486Z,99554.72
2022-11-06T20:14:16.673Z,99553.00
2022-11-06T20:16:43.560Z,99559.38
2022-11-06T20:19:10.964Z,99553.13
2022-11-06T20:21:38.088Z,99554.16
2022-11-06T20:24:05.260Z,99555.78
2022-11-06T20:26:33.669Z,99559.84
2022-11-06T20:29:01.203Z,99562.47
2022-11-06T20:31:28.466Z,99564.81
2022-11-06T20:33:57.696Z,99566.31
2022-11-06T20:36:28.367Z,99568.16
2022-11-06T20:38:59.449Z,99577.53
2022-11-06T20:41:27.639Z,99565.63
2022-11-06T20:43:55.599Z,99573.94
2022-11-06T20:46:23.892Z,99571.59
2022-11-06T20:48:51.554Z,99574.50
2022-11-06T20:51:43.023Z,99566.44
2022-11-06T20:54:30.211Z,99571.56
2022-11-06T20:56:57.134Z,99575.28
2022-11-06T20:59:23.997Z,99574.00
2022-11-06T21:01:51.152Z,99568.47
2022-11-06T21:04:18.284Z,99574.00
2022-11-06T21:06:45.260Z,99576.31
2022-11-06T21:09:12.338Z,99577.47
2022-11-06T21:11:39.847Z,99570.63
2022-11-06T21:14:06.712Z,99578.59
2022-11-06T21:16:36.398Z,99576.84
2022-11-06T21:19:04.980Z,99581.72
2022-11-06T21:21:33.778Z,99576.59
2022-11-06T21:24:02.252Z,99574.63
2022-11-06T21:26:37.356Z,99576.84
2022-11-06T21:29:07.428Z,99578.09
2022-11-06T21:31:34.956Z,99574.03
2022-11-06T21:34:03.550Z,99572.75
2022-11-06T21:36:33.779Z,99572.88
2022-11-06T21:39:07.937Z,99556.75
2022-11-06T21:41:35.948Z,99583.50
2022-11-06T21:44:05.152Z,99577.81
2022-11-06T21:46:33.081Z,99563.03
2022-11-06T21:49:00.204Z,99585.47
2022-11-06T21:51:32.305Z,99573.31
2022-11-06T21:54:18.706Z,99569.72
2022-11-06T21:56:49.557Z,99583.25
2022-11-06T21:59:19.805Z,99596.63
2022-11-06T22:01:47.029Z,99594.53
2022-11-06T22:04:14.405Z,99588.97
2022-11-06T22:06:42.880Z,99593.50
2022-11-06T22:09:11.557Z,99590.28
2022-11-06T22:11:41.264Z,99591.28
2022-11-06T22:14:12.107Z,99589.53
2022-11-06T22:16:41.414Z,99589.88
2022-11-06T22:19:09.884Z,99591.06
2022-11-06T22:21:38.354Z,99601.56
2022-11-06T22:24:06.296Z,99609.88
2022-11-06T22:26:34.868Z,99607.56
2022-11-06T22:29:05.502Z,99607.25
2022-11-06T22:31:32.551Z,99607.84
2022-11-06T22:33:59.831Z,99609.66
2022-11-06T22:36:27.001Z,99609.88
2022-11-06T22:38:54.333Z,99613.47
2022-11-06T22:41:23.910Z,99605.47
2022-11-06T22:43:52.001Z,99610.81
2022-11-06T22:46:21.837Z,99621.91
2022-11-06T22:48:49.931Z,99608.72
2022-11-06T22:51:22.842Z,99617.09
2022-11-06T22:53:50.640Z,99615.13
2022-11-06T22:56:18.791Z,99619.47
2022-11-06T22:58:46.064Z,99626.03
2022-11-06T23:01:13.327Z,99616.28
2022-11-06T23:03:40.608Z,99628.13
2022-11-06T23:06:10.018Z,99629.75
2022-11-06T23:08:44.197Z,99632.84
2022-11-06T23:11:14.660Z,99620.16
2022-11-06T23:13:41.598Z,99640.16
2022-11-06T23:16:13.120Z,99637.94
2022-11-06T23:18:40.052Z,99638.94
2022-11-06T23:21:16.769Z,99643.66
2022-11-06T23:23:45.636Z,99637.31
2022-11-06T23:26:14.811Z,99649.88
2022-11-06T23:28:42.695Z,99639.59
2022-11-06T23:31:11.854Z,99646.25
2022-11-06T23:33:39.478Z,99652.59
2022-11-06T23:36:12.245Z,99648.06
2022-11-06T23:38:39.768Z,99644.00
2022-11-06T23:41:45.603Z,99652.03
2022-11-06T23:44:33.477Z,99654.94
2022-11-06T23:47:01.350Z,99652.50
2022-11-06T23:49:28.413Z,99663.41
2022-11-06T23:51:55.642Z,99661.78
2022-11-06T23:54:22.754Z,99665.56
2022-11-06T23:56:49.676Z,99661.50
2022-11-06T23:59:16.899Z,99668.66
